Aérodrome :
LOGIN :

S'inscrire | Disclaimer

   EN    FR    IT 

 










Légende :    VFR   VFR Marginal   IFR   IFR Intensif   IFR Très Intensif
Visi : 
Plafond : 
>= 8 km
>= 3000ft
5 à 8 km
1000 à 3000 ft
1500m à 5 km
500 à 1000 ft
800 à 1500m
200 à 500 ft
< 800m
< 200 ft
Symboles :   Orages  Brouillard  Fortes neiges  Fortes précipitations  Vent > 20 kt
SIGMETs :   Divers  Orages  Givrage  Turbulence  Onde Orograph.  Cendres Volcan.







- Altitude de l'aérodrome : 1411 ft
- Code IATA : SZG


LOWS - Salzburg

DERNIER METAR :
  • 230250Z AUTO 15011KT 9999 FEW070 14/09 Q1017

METARs EXPIRÉS :
  • 230220Z AUTO 15011KT 9999 BKN070 14/09 Q1017
  • 230150Z AUTO 16009KT 120V180 9999 //////CB FEW070 SCT080 14/09 Q1017
  • 230120Z AUTO 15010KT 110V170 9999 NCD 14/09 Q1017
  • 230050Z AUTO 15009KT 9999 FEW090 15/09 Q1017
  • 230020Z AUTO 15009KT 110V170 9999 FEW060 SCT070 15/09 Q1017

TAF TAF LOWS
Valide du 23 à 00h jusqu'au 24 à 00h UTC


222315Z 2300/2324 15006KT CAVOK TX23/2315Z TN12/2303Z
BECMG 2307/2309 29010KT 9999 FEW060 SCT080
TEMPO 2312/2319 SCT060 FEW060CB
TEMPO 2319/2324 VRB15G25KT 5000 TSRA SCT040CB BKN050
Pas de NOTAMs connus pour ce terrain.



MET'MAP, la Météo Aéronautique d'un coup d'oeil ! - Copyright ORBIFLY Décembre 2007 - Disclaimer

ORBIFLY MET'MAP TEAM :

Programmation & Développement : Alexandra Zaïnal
Conception & Développement : Baudouin d'Aumeries
Co-Programmation & Développement : Marc-Olivier Méhu
Soutien technique & logistique : Manuel Goepfert

Contact : metmap@orbifly.com




SOURCES & CREDITS :

   NOAA